Weather at Fort Lee Army Airfield [CLOSED]

Public forecast

Using degrees Fahrenheit for public forecast. Weather courtesy of forecast.io.

Closest aviation weather report (METAR) to Fort Lee Army Airfield

Closest report is Dinwiddie County Airport, 9.8 nm (18.2 km) SW. Retrieved 2020/10/29 16:35 UTC (0 seconds ago):

KPTB 291635Z AUTO 15008G18KT 3SM -RA OVC005 20/19 A2947 RMK AO2 T02020191

Closest aviation forecast (TAF) to Fort Lee Army Airfield

Closest forecast is Richmond International Airport, 13.3 nm (24.7 km) N. Retrieved 2020/10/29 12:22 UTC (4 hours ago):

TAF KRIC 291120Z 2912/3012 19006KT P6SM -RA OVC035 FM291400 18014G24KT 4SM RA SCT008 OVC012 TEMPO 2914/2918 2SM +RA BKN008 FM291800 20022G36KT P6SM SHRA BKN015 OVC070 FM292100 25014G22KT P6SM VCSH OVC070 FM300000 28007KT P6SM VCSH BKN060 FM300500 33012KT P6SM OVC003